createdAt,value
2018-07-04T00:00:49.614Z,6.23
2018-07-04T00:03:40.614Z,4.13
2018-07-04T00:06:33.782Z,2.80
2018-07-04T00:09:28.274Z,2.80
2018-07-04T00:12:16.797Z,2.87
2018-07-04T00:15:09.124Z,2.83
2018-07-04T00:17:59.429Z,4.90
2018-07-04T00:20:48.346Z,2.50
2018-07-04T00:23:36.878Z,5.73
2018-07-04T00:26:23.883Z,2.57
2018-07-04T00:29:15.957Z,2.93
2018-07-04T00:32:06.223Z,7.53
2018-07-04T00:34:55.092Z,9.77
2018-07-04T00:37:42.668Z,4.07
2018-07-04T00:40:30.453Z,4.83
2018-07-04T00:43:21.129Z,3.07
2018-07-04T00:46:16.845Z,5.33
2018-07-04T00:49:05.277Z,3.00
2018-07-04T00:52:03.267Z,2.47
2018-07-04T00:54:51.031Z,2.70
2018-07-04T00:57:39.893Z,2.90
2018-07-04T01:00:26.380Z,3.33
2018-07-04T01:03:14.118Z,2.60
2018-07-04T01:06:00.816Z,3.53
2018-07-04T01:08:47.748Z,4.33
2018-07-04T01:11:36.207Z,2.50
2018-07-04T01:14:24.156Z,2.60
2018-07-04T01:17:12.870Z,9.53
2018-07-04T01:20:04.623Z,3.80
2018-07-04T01:22:53.024Z,2.40
2018-07-04T01:25:40.567Z,4.67
2018-07-04T01:28:32.342Z,2.70
2018-07-04T01:31:21.503Z,9.57
2018-07-04T01:34:10.831Z,5.20
2018-07-04T01:36:57.704Z,3.60
2018-07-04T01:39:45.888Z,3.03
2018-07-04T01:42:33.546Z,2.70
2018-07-04T01:45:21.450Z,3.67
2018-07-04T01:48:09.524Z,2.73
2018-07-04T01:50:58.010Z,5.47
2018-07-04T01:53:46.191Z,4.57
2018-07-04T01:56:34.072Z,2.40
2018-07-04T01:59:25.882Z,2.60
2018-07-04T02:02:18.615Z,5.67
2018-07-04T02:05:09.199Z,3.60
2018-07-04T02:07:56.551Z,2.57
2018-07-04T02:13:41.521Z,2.60
2018-07-04T02:16:29.304Z,4.17
2018-07-04T02:19:23.004Z,3.60
2018-07-04T02:22:10.214Z,2.87
2018-07-04T02:25:04.243Z,2.47
2018-07-04T02:27:53.172Z,3.30
2018-07-04T02:30:41.152Z,2.77
2018-07-04T02:33:29.812Z,2.60
2018-07-04T02:36:20.869Z,2.50
2018-07-04T02:39:08.097Z,3.63
2018-07-04T02:41:59.265Z,3.00
2018-07-04T02:44:48.076Z,2.50
2018-07-04T02:47:40.012Z,2.00
2018-07-04T02:50:26.754Z,3.23
2018-07-04T02:53:16.763Z,2.67
2018-07-04T02:56:07.766Z,8.30
2018-07-04T02:58:56.942Z,3.50
2018-07-04T03:01:46.232Z,2.60
2018-07-04T03:04:32.559Z,2.77
2018-07-04T03:07:18.967Z,2.20
2018-07-04T03:10:05.258Z,2.80
2018-07-04T03:12:51.658Z,4.73
2018-07-04T03:15:38.025Z,5.70
2018-07-04T03:18:24.382Z,2.60
2018-07-04T03:21:10.761Z,5.03
2018-07-04T03:23:57.154Z,2.10
2018-07-04T03:26:43.403Z,7.20
2018-07-04T03:29:29.761Z,3.40
2018-07-04T03:32:16.197Z,2.43
2018-07-04T03:35:02.346Z,2.30
2018-07-04T03:37:48.706Z,2.57
2018-07-04T03:40:34.934Z,8.53
2018-07-04T03:43:21.316Z,2.70
2018-07-04T03:46:07.661Z,2.53
2018-07-04T03:48:54.029Z,3.70
2018-07-04T03:51:40.401Z,2.57
2018-07-04T03:54:26.539Z,2.60
2018-07-04T03:57:12.938Z,8.53
2018-07-04T03:59:59.194Z,2.20
2018-07-04T04:02:45.578Z,2.43
2018-07-04T04:05:31.991Z,2.90
2018-07-04T04:08:18.341Z,2.60
2018-07-04T04:11:04.689Z,6.73
2018-07-04T04:13:51.024Z,4.07
2018-07-04T04:16:37.363Z,3.63
2018-07-04T04:19:31.109Z,5.73
2018-07-04T04:22:17.493Z,2.40
2018-07-04T04:25:03.877Z,2.20
2018-07-04T04:27:50.259Z,2.73
2018-07-04T04:30:36.730Z,2.23
2018-07-04T04:33:23.081Z,2.40
2018-07-04T04:36:09.331Z,2.67
2018-07-04T04:38:55.711Z,3.73
2018-07-04T04:41:42.101Z,2.43
2018-07-04T04:44:28.513Z,2.60
2018-07-04T04:47:14.781Z,2.60
2018-07-04T04:50:01.180Z,3.30
2018-07-04T04:52:47.562Z,3.10
2018-07-04T04:55:33.925Z,4.83
2018-07-04T04:58:20.286Z,2.37
2018-07-04T05:01:06.666Z,2.13
2018-07-04T05:03:53.053Z,4.80
2018-07-04T05:06:39.390Z,2.23
2018-07-04T05:09:25.786Z,4.93
2018-07-04T05:12:12.111Z,5.67
2018-07-04T05:14:58.654Z,2.60
2018-07-04T05:17:44.999Z,2.63
2018-07-04T05:20:31.369Z,2.60
2018-07-04T05:23:17.733Z,4.40
2018-07-04T05:26:03.965Z,3.90
2018-07-04T05:28:50.382Z,3.17
2018-07-04T05:31:36.768Z,3.70
2018-07-04T05:34:23.100Z,2.40
2018-07-04T05:37:09.496Z,5.33
2018-07-04T05:39:56.174Z,2.20
2018-07-04T05:42:42.591Z,5.00
2018-07-04T05:45:29.173Z,4.03
2018-07-04T05:48:15.593Z,2.00
2018-07-04T05:51:01.896Z,6.20
2018-07-04T05:53:48.250Z,4.00
2018-07-04T05:56:34.575Z,5.23
2018-07-04T05:59:20.958Z,5.70
2018-07-04T06:02:07.355Z,14.70
2018-07-04T06:04:53.652Z,2.03
2018-07-04T06:07:40.016Z,3.70
2018-07-04T06:10:26.377Z,2.37
2018-07-04T06:13:12.654Z,1.87
2018-07-04T06:15:59.014Z,9.17
2018-07-04T06:18:45.346Z,5.00
2018-07-04T06:21:32.442Z,5.50
2018-07-04T06:24:18.827Z,3.37
2018-07-04T06:27:05.249Z,9.17
2018-07-04T06:29:51.490Z,5.10
2018-07-04T06:32:37.855Z,3.07
2018-07-04T06:35:24.258Z,6.73
2018-07-04T06:37:58.161Z,5.43
2018-07-04T06:40:25.969Z,4.53
2018-07-04T06:42:53.762Z,7.10
2018-07-04T06:45:21.569Z,7.77
2018-07-04T06:47:49.367Z,9.40
2018-07-04T06:50:17.180Z,11.10
2018-07-04T06:52:45.041Z,5.53
2018-07-04T06:55:12.871Z,14.53
2018-07-04T06:57:40.669Z,14.80
2018-07-04T07:00:08.469Z,14.57
2018-07-04T07:02:36.281Z,8.73
2018-07-04T07:05:16.302Z,9.60
2018-07-04T07:08:02.665Z,6.40
2018-07-04T07:10:48.941Z,9.70
2018-07-04T07:13:35.317Z,4.73
2018-07-04T07:16:21.692Z,11.50
2018-07-04T07:19:07.919Z,5.50
2018-07-04T07:21:54.619Z,5.10
2018-07-04T07:24:40.955Z,8.00
2018-07-04T07:27:27.271Z,15.17
2018-07-04T07:30:13.510Z,9.53
2018-07-04T07:32:59.934Z,6.53
2018-07-04T07:35:47.319Z,3.77
2018-07-04T07:38:33.683Z,7.13
2018-07-04T07:41:20.087Z,15.03
2018-07-04T07:44:07.585Z,9.33
2018-07-04T07:46:54.029Z,4.47
2018-07-04T07:49:40.430Z,5.80
2018-07-04T07:52:26.795Z,2.40
2018-07-04T07:55:13.642Z,6.33
2018-07-04T07:57:59.913Z,6.10
2018-07-04T08:00:46.130Z,6.00
2018-07-04T08:03:32.505Z,3.70
2018-07-04T08:06:18.912Z,11.77
2018-07-04T08:09:05.339Z,4.80
2018-07-04T08:11:51.719Z,4.63
2018-07-04T08:14:38.376Z,3.23
2018-07-04T08:17:24.769Z,4.37
2018-07-04T08:20:11.042Z,6.83
2018-07-04T08:22:57.403Z,4.87
2018-07-04T08:25:43.780Z,9.80
2018-07-04T08:28:30.091Z,3.57
2018-07-04T08:31:16.314Z,5.80
2018-07-04T08:34:02.707Z,2.67
2018-07-04T08:36:49.077Z,10.03
2018-07-04T08:39:35.521Z,3.53
2018-07-04T08:42:21.937Z,5.40
2018-07-04T08:45:08.330Z,4.07
2018-07-04T08:47:54.681Z,2.93
2018-07-04T08:50:41.124Z,3.07
2018-07-04T08:53:27.359Z,6.10
2018-07-04T08:56:13.723Z,5.40
2018-07-04T08:59:00.094Z,3.90
2018-07-04T09:01:46.442Z,8.20
2018-07-04T09:04:33.160Z,4.50
2018-07-04T09:07:19.530Z,3.10
2018-07-04T09:10:05.931Z,5.23
2018-07-04T09:12:52.274Z,6.07
2018-07-04T09:15:38.680Z,8.10
2018-07-04T09:18:25.049Z,5.50
2018-07-04T09:21:11.304Z,5.70
2018-07-04T09:23:57.696Z,4.93
2018-07-04T09:26:44.207Z,4.30
2018-07-04T09:29:30.620Z,3.77
2018-07-04T09:32:16.978Z,8.43
2018-07-04T09:35:03.389Z,6.23
2018-07-04T09:37:49.804Z,8.43
2018-07-04T09:40:36.223Z,3.80
2018-07-04T09:43:22.615Z,8.83
2018-07-04T09:46:09.225Z,3.90
2018-07-04T09:48:55.641Z,6.57
2018-07-04T09:51:42.017Z,3.93
2018-07-04T09:54:28.417Z,6.63
2018-07-04T09:57:14.834Z,8.80
2018-07-04T10:00:01.283Z,4.93
2018-07-04T10:02:47.517Z,2.70
2018-07-04T10:05:33.905Z,6.60
2018-07-04T10:08:20.269Z,2.83
2018-07-04T10:11:06.638Z,3.03
2018-07-04T10:13:53.059Z,4.43
2018-07-04T10:16:39.533Z,10.53
2018-07-04T10:19:25.808Z,8.33
2018-07-04T10:22:12.265Z,2.63
2018-07-04T10:24:58.683Z,5.40
2018-07-04T10:27:45.149Z,2.90
2018-07-04T10:30:31.698Z,3.63
2018-07-04T10:33:18.113Z,6.83
2018-07-04T10:36:04.451Z,2.80
2018-07-04T10:38:50.801Z,3.73
2018-07-04T10:41:37.177Z,4.83
2018-07-04T10:44:23.596Z,3.10
2018-07-04T10:47:10.062Z,2.17
2018-07-04T10:49:56.433Z,2.63
2018-07-04T10:52:43.018Z,13.70
2018-07-04T10:55:29.391Z,4.27
2018-07-04T10:58:15.913Z,2.40
2018-07-04T11:01:02.203Z,6.17
2018-07-04T11:03:48.599Z,2.33
2018-07-04T11:06:34.868Z,3.83
2018-07-04T11:09:21.289Z,3.23
2018-07-04T11:12:07.826Z,9.70
2018-07-04T11:14:54.093Z,6.80
2018-07-04T11:17:41.463Z,8.10
2018-07-04T11:20:27.857Z,2.43
2018-07-04T11:23:14.316Z,13.33
2018-07-04T11:26:01.678Z,3.40
2018-07-04T11:28:47.933Z,4.00
2018-07-04T11:31:34.290Z,4.10
2018-07-04T11:34:20.681Z,2.97
2018-07-04T11:37:07.191Z,3.30
2018-07-04T11:39:53.583Z,3.63
2018-07-04T11:42:39.811Z,2.80
2018-07-04T11:45:26.283Z,3.43
2018-07-04T11:48:00.550Z,6.90
2018-07-04T11:50:28.425Z,7.80
2018-07-04T11:52:56.240Z,4.93
2018-07-04T11:55:24.087Z,8.33
2018-07-04T11:57:51.937Z,3.53
2018-07-04T12:00:19.749Z,3.20
2018-07-04T12:02:47.551Z,2.90
2018-07-04T12:05:27.744Z,3.07
2018-07-04T12:08:01.658Z,3.27
2018-07-04T12:10:29.489Z,5.03
2018-07-04T12:12:57.302Z,3.10
2018-07-04T12:15:25.136Z,8.33
2018-07-04T12:17:52.972Z,7.40
2018-07-04T12:20:20.794Z,13.33
2018-07-04T12:22:48.647Z,6.03
2018-07-04T12:25:16.471Z,6.17
2018-07-04T12:27:44.294Z,3.63
2018-07-04T12:30:12.151Z,3.77
2018-07-04T12:32:39.967Z,4.93
2018-07-04T12:35:07.822Z,3.57
2018-07-04T12:37:35.717Z,11.87
2018-07-04T12:40:03.543Z,9.70
2018-07-04T12:42:31.374Z,5.63
2018-07-04T12:44:59.217Z,4.80
2018-07-04T12:47:27.024Z,3.23
2018-07-04T12:49:54.908Z,3.33
2018-07-04T12:52:22.732Z,3.00
2018-07-04T12:55:02.974Z,3.73
2018-07-04T12:57:49.389Z,3.80
2018-07-04T13:00:35.808Z,3.50
2018-07-04T13:03:22.276Z,3.73
2018-07-04T13:06:08.654Z,3.80
2018-07-04T13:08:54.960Z,12.07
2018-07-04T13:11:41.275Z,4.27
2018-07-04T13:14:27.860Z,3.07
2018-07-04T13:17:14.132Z,5.87
2018-07-04T13:20:00.652Z,3.50
2018-07-04T13:22:46.962Z,3.07
2018-07-04T13:25:33.248Z,3.17
2018-07-04T13:28:19.517Z,7.73
2018-07-04T13:31:05.962Z,3.90
2018-07-04T13:33:52.279Z,5.93
2018-07-04T13:36:38.755Z,10.90
2018-07-04T13:39:25.021Z,3.90
2018-07-04T13:42:11.417Z,6.47
2018-07-04T13:44:58.000Z,2.90
2018-07-04T13:47:44.244Z,3.07
2018-07-04T13:50:30.702Z,3.10
2018-07-04T13:53:16.951Z,2.90
2018-07-04T13:56:03.367Z,11.53
2018-07-04T13:58:49.704Z,4.00
2018-07-04T14:01:36.094Z,5.30
2018-07-04T14:04:22.518Z,5.43
2018-07-04T14:07:08.913Z,8.07
2018-07-04T14:09:55.279Z,2.87
2018-07-04T14:12:41.673Z,7.03
2018-07-04T14:15:27.970Z,3.60
2018-07-04T14:18:14.310Z,9.40
2018-07-04T14:21:00.630Z,10.20
2018-07-04T14:23:47.038Z,10.67
2018-07-04T14:26:33.518Z,4.63
2018-07-04T14:29:19.813Z,3.30
2018-07-04T14:32:06.517Z,6.13
2018-07-04T14:34:53.533Z,7.40
2018-07-04T14:37:39.799Z,3.10
2018-07-04T14:40:26.233Z,5.03
2018-07-04T14:43:12.596Z,5.33
2018-07-04T14:45:58.753Z,14.53
2018-07-04T14:48:45.130Z,3.80
2018-07-04T14:51:31.275Z,4.40
2018-07-04T14:54:17.698Z,9.07
2018-07-04T14:57:03.965Z,5.87
2018-07-04T14:59:50.205Z,5.07
2018-07-04T15:02:36.561Z,5.20
2018-07-04T15:05:23.018Z,3.33
2018-07-04T15:08:09.266Z,5.47
2018-07-04T15:10:55.611Z,4.13
2018-07-04T15:13:42.043Z,3.93
2018-07-04T15:16:28.339Z,13.20
2018-07-04T15:19:14.550Z,11.07
2018-07-04T15:22:00.871Z,4.17
2018-07-04T15:24:47.205Z,12.90
2018-07-04T15:27:33.679Z,10.10
2018-07-04T15:30:19.982Z,9.53
2018-07-04T15:33:06.354Z,6.50
2018-07-04T15:35:52.647Z,4.13
2018-07-04T15:38:39.001Z,5.57
2018-07-04T15:41:25.383Z,3.07
2018-07-04T15:44:11.754Z,50.50
2018-07-04T15:46:58.169Z,17.90
2018-07-04T15:49:50.970Z,17.00
2018-07-04T15:52:37.188Z,24.07
2018-07-04T15:55:23.557Z,11.00
2018-07-04T15:58:10.006Z,11.63
2018-07-04T16:00:56.375Z,10.20
2018-07-04T16:03:42.770Z,13.23
2018-07-04T16:06:29.202Z,15.50
2018-07-04T16:09:15.416Z,10.57
2018-07-04T16:12:01.775Z,14.90
2018-07-04T16:14:48.132Z,16.90
2018-07-04T16:17:34.549Z,12.10
2018-07-04T16:20:20.849Z,57.03
2018-07-04T16:23:07.255Z,11.20
2018-07-04T16:25:53.538Z,7.87
2018-07-04T16:28:39.958Z,8.60
2018-07-04T16:31:26.206Z,8.80
2018-07-04T16:34:12.565Z,9.43
2018-07-04T16:36:59.070Z,8.83
2018-07-04T16:39:45.297Z,8.50
2018-07-04T16:42:31.714Z,14.33
2018-07-04T16:45:18.166Z,11.03
2018-07-04T16:48:04.799Z,8.53
2018-07-04T16:50:51.213Z,8.20
2018-07-04T16:53:37.633Z,9.63
2018-07-04T16:56:24.033Z,8.53
2018-07-04T16:59:10.632Z,9.17
2018-07-04T17:01:56.995Z,9.83
2018-07-04T17:04:43.407Z,8.13
2018-07-04T17:07:29.959Z,10.03
2018-07-04T17:10:16.301Z,16.10
2018-07-04T17:13:02.533Z,8.70
2018-07-04T17:15:48.931Z,13.90
2018-07-04T17:18:35.334Z,10.43
2018-07-04T17:21:21.714Z,10.33
2018-07-04T17:24:08.094Z,11.50
2018-07-04T17:26:54.462Z,12.43
2018-07-04T17:29:40.878Z,7.63
2018-07-04T17:32:27.323Z,8.40
2018-07-04T17:35:13.606Z,7.93
2018-07-04T17:37:59.816Z,7.60
2018-07-04T17:40:46.195Z,12.13
2018-07-04T17:43:32.577Z,8.47
2018-07-04T17:46:19.070Z,8.47
2018-07-04T17:49:05.434Z,9.20
2018-07-04T17:51:51.832Z,8.70
2018-07-04T17:54:38.128Z,8.70
2018-07-04T17:57:24.615Z,7.70
2018-07-04T18:00:10.889Z,8.87
2018-07-04T18:02:57.317Z,8.37
2018-07-04T18:05:43.714Z,7.83
2018-07-04T18:08:30.061Z,8.20
2018-07-04T18:11:16.503Z,10.03
2018-07-04T18:14:02.763Z,10.00
2018-07-04T18:16:49.137Z,9.80
2018-07-04T18:19:35.347Z,8.87
2018-07-04T18:22:21.780Z,9.20
2018-07-04T18:25:08.149Z,9.07
2018-07-04T18:27:54.291Z,8.73
2018-07-04T18:30:40.638Z,9.43
2018-07-04T18:33:26.951Z,10.27
2018-07-04T18:36:13.384Z,9.87
2018-07-04T18:38:59.813Z,8.73
2018-07-04T18:41:46.217Z,12.50
2018-07-04T18:44:32.558Z,8.80
2018-07-04T18:47:18.887Z,9.13
2018-07-04T18:50:05.271Z,9.63
2018-07-04T18:52:52.028Z,10.23
2018-07-04T18:55:38.302Z,9.87
2018-07-04T18:58:24.593Z,9.80
2018-07-04T19:01:10.940Z,11.20
2018-07-04T19:03:57.420Z,10.00
2018-07-04T19:06:44.714Z,10.00
2018-07-04T19:09:31.099Z,10.47
2018-07-04T19:12:17.510Z,14.33
2018-07-04T19:15:03.824Z,10.63
2018-07-04T19:17:50.226Z,12.50
2018-07-04T19:20:36.594Z,11.73
2018-07-04T19:23:23.008Z,11.10
2018-07-04T19:26:09.443Z,20.80
2018-07-04T19:28:55.821Z,18.80
2018-07-04T19:31:42.090Z,20.93
2018-07-04T19:34:28.447Z,14.87
2018-07-04T19:37:14.837Z,15.83
2018-07-04T19:40:01.226Z,12.50
2018-07-04T19:42:47.680Z,13.53
2018-07-04T19:45:33.849Z,12.90
2018-07-04T19:48:20.150Z,16.90
2018-07-04T19:51:07.511Z,13.50
2018-07-04T19:53:53.906Z,14.10
2018-07-04T19:56:40.173Z,14.10
2018-07-04T19:59:26.471Z,13.77
2018-07-04T20:02:12.946Z,14.47
2018-07-04T20:04:59.332Z,19.00
2018-07-04T20:07:45.757Z,14.70
2018-07-04T20:10:32.208Z,18.23
2018-07-04T20:13:18.613Z,16.40
2018-07-04T20:16:05.044Z,17.83
2018-07-04T20:18:51.317Z,16.57
2018-07-04T20:21:37.752Z,15.63
2018-07-04T20:24:24.139Z,15.83
2018-07-04T20:27:10.488Z,15.10
2018-07-04T20:29:56.929Z,13.07
2018-07-04T20:32:43.316Z,13.50
2018-07-04T20:35:29.703Z,24.60
2018-07-04T20:38:16.145Z,13.53
2018-07-04T20:41:02.498Z,15.60
2018-07-04T20:43:48.761Z,16.73
2018-07-04T20:46:35.096Z,16.93
2018-07-04T20:49:21.519Z,15.80
2018-07-04T20:52:07.749Z,16.63
2018-07-04T20:54:54.171Z,17.53
2018-07-04T20:57:40.561Z,20.93
2018-07-04T21:00:26.997Z,16.63
2018-07-04T21:03:13.390Z,16.87
2018-07-04T21:05:59.770Z,16.63
2018-07-04T21:08:46.114Z,15.87
2018-07-04T21:11:32.465Z,15.60
2018-07-04T21:14:18.934Z,15.37
2018-07-04T21:17:05.141Z,15.07
2018-07-04T21:19:51.464Z,16.30
2018-07-04T21:22:37.881Z,21.27
2018-07-04T21:25:24.277Z,16.93
2018-07-04T21:28:10.637Z,16.17
2018-07-04T21:30:57.013Z,16.27
2018-07-04T21:33:43.413Z,14.43
2018-07-04T21:36:29.759Z,17.83
2018-07-04T21:39:16.106Z,15.63
2018-07-04T21:42:02.518Z,16.93
2018-07-04T21:44:48.801Z,16.30
2018-07-04T21:47:35.239Z,18.00
2018-07-04T21:50:21.600Z,16.57
2018-07-04T21:53:07.997Z,15.30
2018-07-04T21:55:54.365Z,18.53
2018-07-04T21:58:40.741Z,15.83
2018-07-04T22:01:27.137Z,17.10
2018-07-04T22:04:13.668Z,15.57
2018-07-04T22:07:00.002Z,19.67
2018-07-04T22:09:46.357Z,19.43
2018-07-04T22:12:32.766Z,16.90
2018-07-04T22:15:19.177Z,19.27
2018-07-04T22:18:05.399Z,16.83
2018-07-04T22:20:51.778Z,14.07
2018-07-04T22:23:38.141Z,17.27
2018-07-04T22:26:24.461Z,15.70
2018-07-04T22:29:10.846Z,16.57
2018-07-04T22:31:57.201Z,15.57
2018-07-04T22:34:43.592Z,14.93
2018-07-04T22:37:29.990Z,15.13
2018-07-04T22:40:16.344Z,15.10
2018-07-04T22:43:02.692Z,15.17
2018-07-04T22:45:49.069Z,16.23
2018-07-04T22:48:35.437Z,15.57
2018-07-04T22:51:21.843Z,20.30
2018-07-04T22:54:08.244Z,19.37
2018-07-04T22:56:54.614Z,16.20
2018-07-04T22:59:40.893Z,16.37
2018-07-04T23:02:27.313Z,14.07
2018-07-04T23:05:13.762Z,14.27
2018-07-04T23:08:00.294Z,14.27
2018-07-04T23:10:46.686Z,15.03
2018-07-04T23:13:33.038Z,16.50
2018-07-04T23:16:19.484Z,16.40
2018-07-04T23:19:05.881Z,16.10
2018-07-04T23:21:52.274Z,18.27
2018-07-04T23:24:38.671Z,15.00
2018-07-04T23:27:25.166Z,18.00
2018-07-04T23:30:11.638Z,18.10
2018-07-04T23:32:57.857Z,17.27
2018-07-04T23:35:44.227Z,15.90
2018-07-04T23:38:30.605Z,16.57
2018-07-04T23:41:16.968Z,14.97
2018-07-04T23:44:03.297Z,15.60
2018-07-04T23:46:49.717Z,17.33
2018-07-04T23:49:36.053Z,15.80
2018-07-04T23:52:22.421Z,15.70
2018-07-04T23:55:08.792Z,16.83
2018-07-04T23:57:55.168Z,15.43
